createdAt,value
2023-02-06T00:01:38.404Z,87.80
2023-02-06T00:04:05.577Z,81.22
2023-02-06T00:06:33.192Z,86.70
2023-02-06T00:09:01.122Z,82.55
2023-02-06T00:11:28.362Z,95.00
2023-02-06T00:13:55.307Z,77.57
2023-02-06T00:16:22.433Z,76.72
2023-02-06T00:18:50.049Z,80.82
2023-02-06T00:21:22.009Z,75.28
2023-02-06T00:23:49.571Z,78.15
2023-02-06T00:26:17.289Z,79.20
2023-02-06T00:28:45.429Z,74.20
2023-02-06T00:31:13.778Z,67.40
2023-02-06T00:33:40.988Z,68.38
2023-02-06T00:36:08.683Z,71.45
2023-02-06T00:38:37.814Z,79.18
2023-02-06T00:41:05.501Z,75.88
2023-02-06T00:43:32.615Z,71.13
2023-02-06T00:45:59.934Z,79.22
2023-02-06T00:48:27.330Z,78.57
2023-02-06T00:50:54.727Z,63.50
2023-02-06T00:53:22.243Z,72.50
2023-02-06T00:55:49.413Z,77.13
2023-02-06T00:58:16.417Z,74.13
2023-02-06T01:00:44.002Z,72.18
2023-02-06T01:03:11.587Z,71.70
2023-02-06T01:05:39.459Z,70.65
2023-02-06T01:08:06.425Z,72.00
2023-02-06T01:10:33.680Z,85.60
2023-02-06T01:13:00.896Z,76.43
2023-02-06T01:15:28.159Z,73.43
2023-02-06T01:17:56.032Z,68.78
2023-02-06T01:20:24.001Z,75.47
2023-02-06T01:22:51.173Z,77.35
2023-02-06T01:25:18.597Z,73.82
2023-02-06T01:27:45.636Z,73.03
2023-02-06T01:30:14.041Z,71.45
2023-02-06T01:32:41.841Z,76.05
2023-02-06T01:35:10.785Z,78.00
2023-02-06T01:37:39.113Z,74.60
2023-02-06T01:40:11.814Z,78.72
2023-02-06T01:42:38.804Z,72.75
2023-02-06T01:45:44.293Z,76.50
2023-02-06T01:48:16.293Z,68.10
2023-02-06T01:50:50.120Z,78.53
2023-02-06T01:53:18.202Z,78.32
2023-02-06T01:55:47.663Z,82.65
2023-02-06T01:58:19.265Z,82.63
2023-02-06T02:00:46.861Z,81.80
2023-02-06T02:03:14.231Z,82.60
2023-02-06T02:05:43.393Z,76.22
2023-02-06T02:08:22.510Z,83.25
2023-02-06T02:10:50.709Z,77.00
2023-02-06T02:13:17.638Z,69.63
2023-02-06T02:15:56.230Z,73.72
2023-02-06T02:18:47.908Z,66.80
2023-02-06T02:21:39.012Z,77.47
2023-02-06T02:24:12.217Z,68.97
2023-02-06T02:26:58.339Z,76.90
2023-02-06T02:29:51.706Z,70.20
2023-02-06T02:32:49.897Z,79.30
2023-02-06T02:35:40.663Z,78.47
2023-02-06T02:38:24.040Z,88.57
2023-02-06T02:40:59.386Z,75.57
2023-02-06T02:43:43.509Z,79.57
2023-02-06T02:46:31.629Z,78.70
2023-02-06T02:49:05.059Z,77.00
2023-02-06T02:51:35.582Z,79.38
2023-02-06T02:54:02.827Z,65.40
2023-02-06T02:56:30.524Z,81.72
2023-02-06T02:59:11.568Z,85.35
2023-02-06T03:01:49.648Z,81.53
2023-02-06T03:04:25.233Z,83.22
2023-02-06T03:07:04.182Z,80.13
2023-02-06T03:09:46.342Z,83.40
2023-02-06T03:12:35.159Z,77.35
2023-02-06T03:15:11.080Z,75.95
2023-02-06T03:17:51.425Z,72.35
2023-02-06T03:20:19.536Z,84.30
2023-02-06T03:22:48.913Z,86.97
2023-02-06T03:25:23.472Z,79.22
2023-02-06T03:27:52.723Z,89.72
2023-02-06T03:30:24.000Z,77.85
2023-02-06T03:32:54.490Z,84.63
2023-02-06T03:35:26.771Z,80.85
2023-02-06T03:37:54.227Z,88.13
2023-02-06T03:40:22.120Z,84.97
2023-02-06T03:42:53.586Z,76.75
2023-02-06T03:45:42.741Z,87.47
2023-02-06T03:48:19.073Z,81.60
2023-02-06T03:50:50.311Z,90.35
2023-02-06T03:53:19.024Z,89.70
2023-02-06T03:55:47.501Z,78.93
2023-02-06T03:58:15.026Z,89.18
2023-02-06T04:00:45.991Z,89.57
2023-02-06T04:03:14.418Z,86.80
2023-02-06T04:05:41.643Z,80.30
2023-02-06T04:08:08.681Z,86.70
2023-02-06T04:10:36.012Z,83.20
2023-02-06T04:13:02.998Z,84.60
2023-02-06T04:15:30.222Z,91.53
2023-02-06T04:18:01.049Z,97.85
2023-02-06T04:20:29.871Z,90.10
2023-02-06T04:22:57.642Z,94.53
2023-02-06T04:25:25.278Z,87.35
2023-02-06T04:27:52.272Z,87.88
2023-02-06T04:30:19.689Z,91.13
2023-02-06T04:32:46.662Z,90.03
2023-02-06T04:35:14.091Z,83.53
2023-02-06T04:37:41.180Z,91.13
2023-02-06T04:40:09.131Z,85.13
2023-02-06T04:42:36.076Z,87.20
2023-02-06T04:45:03.466Z,98.40
2023-02-06T04:47:30.507Z,89.55
2023-02-06T04:49:57.703Z,94.28
2023-02-06T04:52:24.613Z,97.15
2023-02-06T04:54:51.762Z,91.25
2023-02-06T04:57:18.662Z,92.78
2023-02-06T04:59:45.862Z,90.30
2023-02-06T05:02:12.885Z,93.82
2023-02-06T05:04:40.088Z,91.30
2023-02-06T05:07:07.080Z,99.03
2023-02-06T05:09:34.357Z,90.97
2023-02-06T05:12:01.226Z,84.80
2023-02-06T05:14:28.464Z,84.90
2023-02-06T05:16:55.669Z,94.43
2023-02-06T05:19:23.167Z,86.93
2023-02-06T05:21:50.129Z,76.00
2023-02-06T05:24:17.327Z,89.03
2023-02-06T05:26:45.090Z,84.28
2023-02-06T05:29:12.411Z,96.65
2023-02-06T05:31:39.292Z,101.97
2023-02-06T05:34:06.569Z,101.47
2023-02-06T05:36:33.441Z,101.80
2023-02-06T05:39:00.684Z,107.28
2023-02-06T05:41:27.635Z,100.40
2023-02-06T05:43:54.769Z,95.95
2023-02-06T05:46:21.820Z,113.22
2023-02-06T05:48:49.276Z,112.47
2023-02-06T05:51:16.586Z,97.63
2023-02-06T05:53:44.242Z,102.50
2023-02-06T05:56:11.138Z,107.40
2023-02-06T05:58:38.316Z,103.45
2023-02-06T06:01:05.661Z,106.82
2023-02-06T06:03:33.566Z,110.57
2023-02-06T06:06:00.590Z,119.20
2023-02-06T06:08:27.878Z,109.68
2023-02-06T06:10:54.736Z,110.97
2023-02-06T06:13:22.093Z,111.38
2023-02-06T06:15:52.710Z,109.57
2023-02-06T06:18:20.949Z,111.88
2023-02-06T06:20:48.380Z,92.43
2023-02-06T06:23:15.623Z,116.68
2023-02-06T06:25:42.812Z,109.38
2023-02-06T06:28:10.364Z,104.13
2023-02-06T06:30:39.004Z,107.10
2023-02-06T06:33:06.271Z,119.35
2023-02-06T06:35:33.230Z,102.13
2023-02-06T06:38:00.396Z,96.38
2023-02-06T06:40:27.350Z,97.15
2023-02-06T06:42:54.805Z,109.88
2023-02-06T06:45:21.957Z,99.55
2023-02-06T06:47:49.196Z,94.60
2023-02-06T06:50:16.488Z,89.82
2023-02-06T06:52:44.003Z,91.10
2023-02-06T06:55:11.214Z,100.57
2023-02-06T06:57:38.454Z,97.32
2023-02-06T07:00:06.082Z,95.50
2023-02-06T07:02:33.321Z,96.43
2023-02-06T07:05:00.479Z,111.65
2023-02-06T07:07:27.863Z,103.10
2023-02-06T07:09:54.820Z,101.57
2023-02-06T07:12:22.365Z,101.00
2023-02-06T07:14:49.311Z,98.00
2023-02-06T07:17:16.455Z,108.82
2023-02-06T07:19:48.057Z,113.72
2023-02-06T07:22:15.786Z,111.38
2023-02-06T07:24:43.085Z,128.15
2023-02-06T07:27:10.477Z,123.70
2023-02-06T07:29:38.026Z,102.40
2023-02-06T07:32:05.771Z,118.38
2023-02-06T07:34:32.735Z,117.25
2023-02-06T07:37:00.795Z,127.40
2023-02-06T07:39:27.931Z,99.80
2023-02-06T07:41:55.585Z,90.20
2023-02-06T07:44:26.874Z,79.32
2023-02-06T07:46:54.088Z,75.03
2023-02-06T07:49:21.100Z,70.43
2023-02-06T07:51:48.515Z,72.10
2023-02-06T07:54:15.821Z,79.68
2023-02-06T07:56:43.700Z,71.45
2023-02-06T07:59:10.818Z,62.58
2023-02-06T08:01:38.055Z,70.32
2023-02-06T08:04:05.235Z,61.85
2023-02-06T08:06:32.557Z,64.20
2023-02-06T08:08:59.490Z,61.33
2023-02-06T08:11:30.174Z,65.40
2023-02-06T08:13:58.338Z,57.20
2023-02-06T08:16:25.773Z,61.08
2023-02-06T08:18:52.805Z,64.95
2023-02-06T08:21:22.826Z,58.95
2023-02-06T08:24:00.543Z,64.55
2023-02-06T08:26:29.517Z,60.53
2023-02-06T08:28:58.245Z,55.17
2023-02-06T08:31:28.911Z,59.95
2023-02-06T08:33:56.334Z,70.87
2023-02-06T08:36:24.519Z,64.25
2023-02-06T08:38:52.563Z,68.72
2023-02-06T08:41:26.151Z,61.35
2023-02-06T08:43:56.916Z,65.80
2023-02-06T08:46:28.362Z,61.42
2023-02-06T08:48:57.304Z,65.35
2023-02-06T08:51:27.897Z,63.47
2023-02-06T08:53:58.736Z,53.33
2023-02-06T08:56:26.983Z,55.08
2023-02-06T08:58:54.438Z,66.45
2023-02-06T09:01:21.931Z,70.22
2023-02-06T09:03:48.925Z,75.22
2023-02-06T09:06:16.214Z,62.30
2023-02-06T09:08:43.387Z,65.03
2023-02-06T09:11:13.442Z,61.97
2023-02-06T09:13:40.415Z,64.25
2023-02-06T09:16:08.461Z,63.28
2023-02-06T09:18:36.217Z,73.25
2023-02-06T09:21:19.045Z,65.75
2023-02-06T09:23:52.135Z,74.45
2023-02-06T09:26:23.307Z,70.80
2023-02-06T09:28:59.342Z,68.88
2023-02-06T09:31:30.792Z,66.40
2023-02-06T09:34:00.319Z,69.88
2023-02-06T09:36:30.210Z,72.13
2023-02-06T09:38:58.356Z,72.47
2023-02-06T09:41:37.731Z,70.18
2023-02-06T09:44:27.763Z,67.32
2023-02-06T09:46:58.008Z,76.13
2023-02-06T09:49:43.169Z,72.60
2023-02-06T09:52:30.705Z,71.28
2023-02-06T09:55:28.543Z,68.97
2023-02-06T09:58:20.730Z,65.20
2023-02-06T10:01:05.895Z,67.40
2023-02-06T10:03:55.188Z,68.75
2023-02-06T10:06:34.627Z,71.30
2023-02-06T10:09:03.752Z,57.10
2023-02-06T10:11:48.392Z,58.78
2023-02-06T10:14:22.469Z,56.20
2023-02-06T10:17:00.142Z,55.13
2023-02-06T10:19:46.704Z,56.60
2023-02-06T10:22:43.674Z,54.85
2023-02-06T10:25:21.104Z,54.13
2023-02-06T10:27:55.173Z,45.78
2023-02-06T10:30:40.124Z,51.15
2023-02-06T10:33:25.712Z,52.45
2023-02-06T10:36:18.315Z,48.65
2023-02-06T10:39:22.591Z,44.33
2023-02-06T10:41:58.701Z,44.88
2023-02-06T10:44:37.484Z,44.05
2023-02-06T10:47:15.579Z,46.58
2023-02-06T10:49:50.815Z,43.53
2023-02-06T10:52:35.896Z,55.30
2023-02-06T10:55:28.331Z,48.45
2023-02-06T10:58:17.125Z,47.13
2023-02-06T11:00:46.121Z,47.97
2023-02-06T11:03:19.150Z,46.30
2023-02-06T11:05:46.296Z,36.55
2023-02-06T11:08:13.450Z,43.45
2023-02-06T11:10:40.727Z,55.58
2023-02-06T11:13:23.349Z,35.83
2023-02-06T11:16:02.652Z,39.13
2023-02-06T11:18:37.914Z,32.28
2023-02-06T11:21:05.859Z,36.80
2023-02-06T11:23:35.130Z,35.05
2023-02-06T11:26:15.537Z,37.72
2023-02-06T11:29:08.839Z,40.63
2023-02-06T11:31:58.574Z,38.95
2023-02-06T11:34:27.999Z,33.85
2023-02-06T11:37:06.956Z,32.45
2023-02-06T11:39:35.609Z,45.47
2023-02-06T11:42:18.635Z,40.60
2023-02-06T11:44:50.719Z,31.05
2023-02-06T11:47:37.594Z,33.33
2023-02-06T11:50:14.324Z,32.78
2023-02-06T11:52:46.589Z,31.85
2023-02-06T11:55:27.297Z,42.85
2023-02-06T11:58:05.395Z,42.28
2023-02-06T12:00:36.145Z,41.80
2023-02-06T12:03:05.601Z,41.92
2023-02-06T12:05:41.829Z,44.05
2023-02-06T12:08:17.179Z,34.75
2023-02-06T12:10:56.139Z,42.80
2023-02-06T12:13:33.839Z,39.40
2023-02-06T12:16:05.714Z,38.42
2023-02-06T12:18:38.373Z,38.05
2023-02-06T12:21:12.316Z,44.25
2023-02-06T12:23:50.314Z,47.00
2023-02-06T12:26:22.078Z,46.78
2023-02-06T12:29:00.280Z,48.63
2023-02-06T12:31:42.482Z,51.97
2023-02-06T12:34:28.881Z,57.80
2023-02-06T12:37:10.963Z,47.42
2023-02-06T12:39:38.113Z,51.90
2023-02-06T12:42:46.826Z,52.38
2023-02-06T12:45:25.816Z,62.67
2023-02-06T12:48:12.331Z,54.97
2023-02-06T12:50:42.999Z,59.35
2023-02-06T12:53:33.277Z,56.47
2023-02-06T12:56:37.194Z,56.88
2023-02-06T12:59:07.383Z,56.92
2023-02-06T13:01:52.683Z,62.78
2023-02-06T13:04:24.389Z,52.72
2023-02-06T13:07:22.044Z,64.50
2023-02-06T13:10:14.002Z,60.50
2023-02-06T13:12:40.906Z,60.97
2023-02-06T13:15:22.508Z,63.70
2023-02-06T13:17:51.294Z,70.40
2023-02-06T13:20:20.970Z,66.82
2023-02-06T13:22:55.300Z,65.22
2023-02-06T13:25:25.084Z,71.68
2023-02-06T13:27:53.493Z,74.47
2023-02-06T13:30:29.918Z,73.90
2023-02-06T13:33:24.723Z,65.63
2023-02-06T13:36:00.691Z,73.80
2023-02-06T13:38:37.976Z,62.38
2023-02-06T13:41:17.160Z,65.78
2023-02-06T13:44:20.737Z,73.28
2023-02-06T13:47:16.184Z,71.88
2023-02-06T13:50:08.785Z,68.10
2023-02-06T13:52:55.135Z,66.38
2023-02-06T13:55:44.939Z,66.20
2023-02-06T13:58:39.374Z,63.95
2023-02-06T14:01:14.672Z,60.53
2023-02-06T14:03:48.538Z,62.53
2023-02-06T14:06:16.163Z,59.08
2023-02-06T14:09:08.980Z,64.15
2023-02-06T14:12:22.530Z,68.82
2023-02-06T14:15:16.639Z,62.05
2023-02-06T14:18:09.388Z,73.65
2023-02-06T14:20:55.276Z,69.13
2023-02-06T14:23:31.415Z,75.95
2023-02-06T14:26:21.081Z,73.88
2023-02-06T14:29:10.249Z,73.28
2023-02-06T14:31:46.227Z,72.30
2023-02-06T14:35:00.926Z,67.78
2023-02-06T14:37:50.500Z,72.95
2023-02-06T14:40:25.741Z,70.10
2023-02-06T14:42:57.643Z,70.65
2023-02-06T14:45:42.061Z,69.57
2023-02-06T14:48:24.546Z,70.28
2023-02-06T14:50:56.694Z,69.28
2023-02-06T14:53:27.378Z,88.75
2023-02-06T14:56:24.137Z,78.85
2023-02-06T14:58:51.481Z,94.45
2023-02-06T15:01:18.735Z,94.93
2023-02-06T15:03:47.873Z,100.80
2023-02-06T15:06:45.038Z,93.57
2023-02-06T15:09:31.938Z,93.57
2023-02-06T15:12:02.488Z,93.53
2023-02-06T15:14:34.946Z,94.25
2023-02-06T15:17:02.956Z,86.18
2023-02-06T15:19:32.833Z,106.47
2023-02-06T15:22:03.278Z,103.18
2023-02-06T15:24:56.939Z,91.43
2023-02-06T15:27:30.903Z,90.30
2023-02-06T15:29:59.385Z,90.50
2023-02-06T15:32:33.566Z,80.95
2023-02-06T15:35:01.904Z,94.95
2023-02-06T15:37:34.528Z,91.68
2023-02-06T15:40:08.818Z,100.22
2023-02-06T15:42:37.071Z,97.60
2023-02-06T15:45:04.810Z,102.45
2023-02-06T15:47:33.084Z,97.78
2023-02-06T15:50:00.640Z,95.18
2023-02-06T15:52:36.748Z,100.68
2023-02-06T15:55:04.974Z,113.20
2023-02-06T15:57:40.814Z,108.60
2023-02-06T16:00:23.427Z,113.70
2023-02-06T16:02:53.332Z,107.32
2023-02-06T16:05:34.512Z,113.75
2023-02-06T16:08:04.064Z,112.82
2023-02-06T16:10:36.339Z,108.95
2023-02-06T16:13:11.072Z,109.35
2023-02-06T16:15:40.362Z,121.65
2023-02-06T16:18:29.222Z,125.97
2023-02-06T16:21:18.209Z,121.22
2023-02-06T16:23:47.170Z,120.85
2023-02-06T16:26:18.710Z,124.60
2023-02-06T16:28:55.348Z,113.53
2023-02-06T16:31:23.114Z,117.25
2023-02-06T16:33:52.554Z,119.07
2023-02-06T16:36:21.055Z,123.13
2023-02-06T16:39:02.778Z,115.28
2023-02-06T16:41:33.907Z,113.20
2023-02-06T16:44:03.289Z,114.95
2023-02-06T16:46:30.831Z,112.10
2023-02-06T16:48:59.388Z,112.25
2023-02-06T16:51:28.833Z,117.78
2023-02-06T16:53:57.329Z,105.55
2023-02-06T16:56:24.804Z,106.95
2023-02-06T16:58:55.514Z,103.63
2023-02-06T17:01:25.880Z,117.25
2023-02-06T17:03:54.386Z,105.50
2023-02-06T17:06:26.139Z,96.25
2023-02-06T17:08:58.514Z,102.22
2023-02-06T17:11:25.587Z,98.70
2023-02-06T17:13:52.978Z,105.53
2023-02-06T17:16:22.733Z,97.13
2023-02-06T17:18:51.658Z,96.30
2023-02-06T17:21:21.706Z,98.40
2023-02-06T17:23:50.671Z,113.05
2023-02-06T17:26:22.692Z,105.97
2023-02-06T17:28:50.703Z,97.43
2023-02-06T17:31:18.520Z,109.90
2023-02-06T17:33:45.866Z,102.53
2023-02-06T17:36:22.004Z,105.95
2023-02-06T17:38:49.669Z,98.80
2023-02-06T17:41:16.582Z,102.85
2023-02-06T17:43:43.994Z,114.70
2023-02-06T17:46:11.840Z,114.22
2023-02-06T17:48:42.701Z,102.95
2023-02-06T17:51:10.874Z,104.88
2023-02-06T17:53:38.147Z,117.68
2023-02-06T17:56:14.816Z,117.40
2023-02-06T17:58:43.632Z,112.32
2023-02-06T18:01:15.828Z,116.22
2023-02-06T18:03:43.789Z,114.47
2023-02-06T18:06:11.388Z,106.30
2023-02-06T18:08:39.468Z,118.13
2023-02-06T18:11:15.513Z,130.07
2023-02-06T18:13:42.840Z,100.53
2023-02-06T18:16:18.219Z,115.05
2023-02-06T18:18:46.747Z,123.05
2023-02-06T18:21:14.416Z,110.68
2023-02-06T18:23:41.742Z,126.78
2023-02-06T18:26:10.002Z,112.70
2023-02-06T18:28:39.024Z,116.78
2023-02-06T18:31:19.413Z,122.00
2023-02-06T18:33:47.237Z,123.65
2023-02-06T18:36:14.151Z,119.60
2023-02-06T18:38:42.579Z,106.15
2023-02-06T18:41:29.598Z,120.45
2023-02-06T18:44:00.274Z,109.70
2023-02-06T18:46:27.378Z,108.57
2023-02-06T18:48:55.113Z,115.22
2023-02-06T18:51:22.224Z,129.80
2023-02-06T18:53:49.991Z,125.63
2023-02-06T18:56:17.298Z,117.93
2023-02-06T18:58:44.549Z,106.60
2023-02-06T19:01:17.712Z,121.15
2023-02-06T19:03:45.430Z,125.47
2023-02-06T19:06:23.632Z,117.25
2023-02-06T19:08:50.826Z,118.75
2023-02-06T19:11:17.859Z,126.20
2023-02-06T19:13:45.294Z,106.30
2023-02-06T19:16:18.269Z,106.93
2023-02-06T19:18:48.230Z,117.93
2023-02-06T19:21:18.247Z,109.38
2023-02-06T19:23:48.307Z,86.47
2023-02-06T19:26:16.914Z,119.07
2023-02-06T19:28:44.717Z,124.20
2023-02-06T19:31:12.960Z,120.82
2023-02-06T19:33:41.691Z,117.22
2023-02-06T19:36:11.475Z,118.35
2023-02-06T19:38:39.873Z,113.63
2023-02-06T19:41:08.821Z,112.72
2023-02-06T19:43:37.125Z,112.95
2023-02-06T19:46:09.108Z,109.30
2023-02-06T19:48:36.452Z,118.10
2023-02-06T19:51:11.440Z,113.30
2023-02-06T19:53:45.257Z,113.95
2023-02-06T19:56:13.874Z,118.95
2023-02-06T19:58:41.718Z,109.75
2023-02-06T20:01:14.379Z,122.88
2023-02-06T20:03:42.555Z,111.50
2023-02-06T20:06:12.497Z,112.25
2023-02-06T20:08:43.143Z,119.90
2023-02-06T20:11:14.623Z,103.32
2023-02-06T20:13:42.860Z,108.57
2023-02-06T20:16:31.637Z,107.03
2023-02-06T20:19:04.787Z,107.57
2023-02-06T20:21:34.741Z,93.43
2023-02-06T20:24:04.381Z,104.57
2023-02-06T20:26:34.765Z,102.30
2023-02-06T20:29:02.647Z,99.68
2023-02-06T20:31:30.349Z,98.55
2023-02-06T20:33:57.639Z,92.85
2023-02-06T20:36:26.376Z,100.60
2023-02-06T20:38:56.467Z,98.30
2023-02-06T20:41:27.518Z,97.05
2023-02-06T20:44:01.476Z,91.82
2023-02-06T20:46:30.802Z,89.05
2023-02-06T20:49:03.373Z,90.05
2023-02-06T20:51:31.128Z,96.85
2023-02-06T20:53:58.796Z,92.22
2023-02-06T20:56:27.140Z,91.95
2023-02-06T20:58:54.577Z,96.28
2023-02-06T21:01:24.191Z,86.60
2023-02-06T21:03:54.690Z,86.15
2023-02-06T21:06:22.307Z,92.25
2023-02-06T21:08:51.587Z,90.97
2023-02-06T21:11:18.904Z,85.10
2023-02-06T21:13:46.102Z,79.05
2023-02-06T21:16:13.712Z,80.45
2023-02-06T21:18:42.672Z,85.57
2023-02-06T21:21:12.558Z,86.85
2023-02-06T21:23:42.236Z,96.70
2023-02-06T21:26:12.091Z,85.70
2023-02-06T21:28:40.662Z,85.68
2023-02-06T21:31:12.283Z,80.82
2023-02-06T21:33:40.134Z,92.07
2023-02-06T21:36:07.876Z,89.57
2023-02-06T21:38:36.286Z,88.15
2023-02-06T21:41:05.755Z,78.60
2023-02-06T21:43:33.860Z,86.65
2023-02-06T21:46:01.572Z,91.43
2023-02-06T21:48:28.871Z,86.20
2023-02-06T21:50:55.874Z,94.57
2023-02-06T21:53:23.497Z,94.68
2023-02-06T21:55:50.612Z,94.47
2023-02-06T21:58:17.816Z,95.10
2023-02-06T22:00:47.094Z,100.85
2023-02-06T22:03:15.910Z,101.28
2023-02-06T22:05:43.173Z,99.82
2023-02-06T22:08:10.498Z,98.18
2023-02-06T22:10:38.047Z,98.65
2023-02-06T22:13:05.965Z,107.30
2023-02-06T22:15:33.858Z,101.70
2023-02-06T22:18:01.605Z,110.18
2023-02-06T22:20:28.753Z,103.60
2023-02-06T22:22:55.933Z,97.15
2023-02-06T22:25:23.069Z,103.53
2023-02-06T22:27:50.323Z,105.45
2023-02-06T22:30:17.552Z,107.70
2023-02-06T22:32:44.773Z,109.60
2023-02-06T22:35:11.720Z,101.15
2023-02-06T22:37:38.922Z,116.05
2023-02-06T22:40:06.218Z,107.97
2023-02-06T22:42:34.784Z,107.38
2023-02-06T22:45:01.754Z,116.63
2023-02-06T22:47:28.990Z,112.22
2023-02-06T22:49:56.016Z,109.28
2023-02-06T22:52:42.071Z,107.82
2023-02-06T22:55:09.563Z,108.97
2023-02-06T22:57:37.287Z,102.38
2023-02-06T23:00:09.673Z,111.45
2023-02-06T23:02:38.744Z,113.32
2023-02-06T23:05:06.292Z,108.10
2023-02-06T23:07:33.480Z,104.95
2023-02-06T23:10:00.387Z,97.43
2023-02-06T23:12:27.987Z,100.63
2023-02-06T23:14:55.058Z,91.95
2023-02-06T23:17:22.186Z,85.75
2023-02-06T23:19:49.141Z,96.53
2023-02-06T23:22:16.317Z,100.95
2023-02-06T23:24:43.207Z,106.60
2023-02-06T23:27:10.512Z,89.38
2023-02-06T23:29:37.486Z,100.80
2023-02-06T23:32:05.504Z,100.40
2023-02-06T23:34:32.357Z,94.97
2023-02-06T23:36:59.624Z,100.43
2023-02-06T23:39:26.474Z,94.07
2023-02-06T23:41:53.756Z,97.65
2023-02-06T23:44:20.836Z,101.18
2023-02-06T23:46:48.008Z,93.25
2023-02-06T23:49:15.134Z,94.53
2023-02-06T23:51:42.462Z,95.20
2023-02-06T23:54:10.098Z,89.25
2023-02-06T23:56:38.249Z,99.13
2023-02-06T23:59:06.302Z,104.00
